Terminal Aerodrome Forecast
Issued by NWS Portland, OR

Home | Current Version | Previous Version | Text Only | Print | Product List | Glossary On
Versions: 1 2 3 4 5 6 7 8 9 10 11 12 13 14 15 16 17 18 19 20 21 22 23 24 25 26 27 28 29 30
000
FTUS46 KPQR 090520
TAFPDX
TAF
KPDX 090520Z 0906/1006 11015G25KT P6SM -FZRA SCT015 OVC025
     FM091000 11013KT 6SM -FZRA BR BKN015 OVC025
     FM091600 12010KT 6SM -SHRA BR BKN009 OVC015=

USA.gov is the U.S. government's official web portal to all federal, state and local government web resources and services.